createdAt,value
2023-12-12T00:02:03.108Z,98969.94
2023-12-12T00:04:29.896Z,98966.19
2023-12-12T00:06:56.721Z,98956.97
2023-12-12T00:09:23.485Z,98974.88
2023-12-12T00:11:50.447Z,98973.25
2023-12-12T00:14:17.114Z,98971.38
2023-12-12T00:16:43.903Z,98986.31
2023-12-12T00:19:10.843Z,98977.09
2023-12-12T00:21:37.786Z,98980.63
2023-12-12T00:24:04.883Z,98993.66
2023-12-12T00:26:31.549Z,98995.56
2023-12-12T00:28:58.416Z,98995.84
2023-12-12T00:31:25.106Z,98997.75
2023-12-12T00:33:51.868Z,99006.47
2023-12-12T00:36:18.902Z,99003.19
2023-12-12T00:38:45.710Z,99008.09
2023-12-12T00:41:12.652Z,99010.78
2023-12-12T00:43:41.843Z,99015.38
2023-12-12T00:46:11.607Z,99020.22
2023-12-12T00:48:38.582Z,99010.72
2023-12-12T00:51:08.773Z,99019.63
2023-12-12T00:53:35.572Z,99021.81
2023-12-12T00:56:02.198Z,99030.75
2023-12-12T00:58:28.962Z,99031.53
2023-12-12T01:00:55.752Z,99029.09
2023-12-12T01:03:22.558Z,99044.53
2023-12-12T01:05:49.306Z,99048.31
2023-12-12T01:08:16.000Z,99036.09
2023-12-12T01:10:42.773Z,99046.63
2023-12-12T01:13:09.504Z,99045.22
2023-12-12T01:15:36.139Z,99049.53
2023-12-12T01:18:03.060Z,99052.19
2023-12-12T01:20:29.779Z,99059.47
2023-12-12T01:22:56.480Z,99057.28
2023-12-12T01:25:23.584Z,99073.25
2023-12-12T01:27:50.277Z,99077.59
2023-12-12T01:30:16.997Z,99074.03
2023-12-12T01:32:43.711Z,99082.97
2023-12-12T01:35:10.833Z,99077.53
2023-12-12T01:37:37.737Z,99070.44
2023-12-12T01:40:06.094Z,99078.50
2023-12-12T01:42:32.862Z,99079.84
2023-12-12T01:45:00.057Z,99076.50
2023-12-12T01:47:28.065Z,99076.75
2023-12-12T01:49:55.238Z,99085.41
2023-12-12T01:52:24.152Z,99079.16
2023-12-12T01:54:51.342Z,99087.75
2023-12-12T01:57:21.305Z,99091.56
2023-12-12T01:59:50.114Z,99090.75
2023-12-12T02:02:20.153Z,99091.50
2023-12-12T02:04:49.063Z,99102.31
2023-12-12T02:07:17.004Z,99100.44
2023-12-12T02:09:45.063Z,99102.72
2023-12-12T02:12:11.997Z,99097.03
2023-12-12T02:14:38.810Z,99098.16
2023-12-12T02:17:05.970Z,99107.13
2023-12-12T02:19:32.755Z,99106.59
2023-12-12T02:21:59.446Z,99113.66
2023-12-12T02:24:26.141Z,99107.41
2023-12-12T02:26:53.075Z,99118.56
2023-12-12T02:29:19.865Z,99126.22
2023-12-12T02:31:46.536Z,99119.78
2023-12-12T02:34:13.352Z,99120.97
2023-12-12T02:36:40.032Z,99113.91
2023-12-12T02:39:06.821Z,99123.22
2023-12-12T02:41:33.474Z,99131.41
2023-12-12T02:44:00.147Z,99130.38
2023-12-12T02:46:26.829Z,99128.25
2023-12-12T02:48:53.614Z,99138.06
2023-12-12T02:51:20.414Z,99143.81
2023-12-12T02:53:47.156Z,99144.66
2023-12-12T02:56:13.779Z,99143.59
2023-12-12T02:58:40.481Z,99145.78
2023-12-12T03:01:07.266Z,99150.13
2023-12-12T03:03:34.067Z,99150.13
2023-12-12T03:06:01.013Z,99149.84
2023-12-12T03:08:27.796Z,99150.69
2023-12-12T03:10:54.444Z,99148.28
2023-12-12T03:13:21.101Z,99145.28
2023-12-12T03:15:47.722Z,99146.66
2023-12-12T03:18:14.425Z,99149.38
2023-12-12T03:20:41.179Z,99152.09
2023-12-12T03:23:07.844Z,99147.75
2023-12-12T03:25:34.592Z,99150.19
2023-12-12T03:28:01.586Z,99151.84
2023-12-12T03:30:28.258Z,99157.81
2023-12-12T03:32:54.969Z,99151.31
2023-12-12T03:35:21.670Z,99155.69
2023-12-12T03:37:48.306Z,99146.72
2023-12-12T03:40:15.153Z,99151.31
2023-12-12T03:42:41.767Z,99145.06
2023-12-12T03:45:09.256Z,99145.06
2023-12-12T03:47:36.200Z,99140.69
2023-12-12T03:50:03.616Z,99148.06
2023-12-12T03:52:30.339Z,99140.69
2023-12-12T03:54:57.049Z,99134.47
2023-12-12T03:57:23.763Z,99136.63
2023-12-12T03:59:50.497Z,99139.59
2023-12-12T04:02:17.264Z,99146.38
2023-12-12T04:04:44.196Z,99146.63
2023-12-12T04:07:10.844Z,99148.50
2023-12-12T04:09:37.508Z,99148.50
2023-12-12T04:12:04.502Z,99143.03
2023-12-12T04:14:31.109Z,99152.75
2023-12-12T04:16:57.908Z,99152.22
2023-12-12T04:19:24.685Z,99153.59
2023-12-12T04:21:52.612Z,99145.44
2023-12-12T04:24:19.353Z,99145.16
2023-12-12T04:26:45.982Z,99143.31
2023-12-12T04:29:12.837Z,99152.03
2023-12-12T04:31:39.572Z,99150.69
2023-12-12T04:34:06.335Z,99143.38
2023-12-12T04:36:34.407Z,99142.84
2023-12-12T04:39:01.106Z,99142.56
2023-12-12T04:41:27.742Z,99143.38
2023-12-12T04:43:54.480Z,99143.94
2023-12-12T04:46:21.649Z,99150.19
2023-12-12T04:48:48.893Z,99160.22
2023-12-12T04:51:15.638Z,99164.28
2023-12-12T04:53:42.358Z,99157.19
2023-12-12T04:56:09.713Z,99159.88
2023-12-12T04:58:36.406Z,99159.06
2023-12-12T05:01:03.180Z,99160.72
2023-12-12T05:03:29.912Z,99162.91
2023-12-12T05:05:56.849Z,99166.16
2023-12-12T05:08:23.532Z,99166.75
2023-12-12T05:10:50.198Z,99164.84
2023-12-12T05:13:17.107Z,99165.41
2023-12-12T05:15:43.886Z,99168.66
2023-12-12T05:18:10.891Z,99166.78
2023-12-12T05:20:37.712Z,99171.97
2023-12-12T05:23:04.281Z,99164.59
2023-12-12T05:25:30.933Z,99169.25
2023-12-12T05:27:57.748Z,99174.66
2023-12-12T05:30:24.491Z,99172.75
2023-12-12T05:32:51.185Z,99177.66
2023-12-12T05:35:17.859Z,99182.56
2023-12-12T05:37:45.238Z,99179.03
2023-12-12T05:40:15.570Z,99189.88
2023-12-12T05:42:43.047Z,99190.44
2023-12-12T05:45:09.891Z,99194.47
2023-12-12T05:47:37.209Z,99199.03
2023-12-12T05:50:07.683Z,99199.56
2023-12-12T05:52:34.472Z,99202.78
2023-12-12T05:55:01.240Z,99203.31
2023-12-12T05:57:28.523Z,99205.47
2023-12-12T05:59:55.298Z,99203.00
2023-12-12T06:02:21.951Z,99203.28
2023-12-12T06:04:49.744Z,99210.06
2023-12-12T06:07:16.571Z,99206.03
2023-12-12T06:09:43.311Z,99205.78
2023-12-12T06:12:10.030Z,99206.88
2023-12-12T06:14:36.767Z,99214.50
2023-12-12T06:17:06.816Z,99207.75
2023-12-12T06:19:33.528Z,99223.53
2023-12-12T06:22:00.313Z,99219.72
2023-12-12T06:24:26.963Z,99223.00
2023-12-12T06:26:53.580Z,99225.72
2023-12-12T06:29:20.456Z,99223.81
2023-12-12T06:31:47.195Z,99225.44
2023-12-12T06:34:14.606Z,99223.81
2023-12-12T06:36:41.583Z,99218.38
2023-12-12T06:39:11.221Z,99224.91
2023-12-12T06:41:38.632Z,99221.38
2023-12-12T06:44:05.747Z,99217.59
2023-12-12T06:46:32.451Z,99220.03
2023-12-12T06:48:59.960Z,99219.75
2023-12-12T06:51:27.567Z,99230.59
2023-12-12T06:53:55.105Z,99228.47
2023-12-12T06:56:22.208Z,99228.19
2023-12-12T06:58:49.089Z,99227.94
2023-12-12T07:01:15.826Z,99222.53
2023-12-12T07:03:42.577Z,99223.63
2023-12-12T07:06:10.456Z,99217.41
2023-12-12T07:08:37.797Z,99211.44
2023-12-12T07:11:04.756Z,99213.06
2023-12-12T07:13:31.429Z,99214.44
2023-12-12T07:15:58.074Z,99220.16
2023-12-12T07:18:25.743Z,99216.09
2023-12-12T07:20:52.409Z,99226.72
2023-12-12T07:23:19.146Z,99223.72
2023-12-12T07:25:47.227Z,99223.47
2023-12-12T07:28:13.954Z,99227.56
2023-12-12T07:30:40.606Z,99230.03
2023-12-12T07:33:07.420Z,99235.75
2023-12-12T07:35:34.258Z,99237.38
2023-12-12T07:38:02.410Z,99232.25
2023-12-12T07:40:31.637Z,99232.56
2023-12-12T07:42:59.141Z,99232.03
2023-12-12T07:45:26.035Z,99238.84
2023-12-12T07:47:53.222Z,99236.66
2023-12-12T07:50:20.142Z,99234.50
2023-12-12T07:52:48.507Z,99238.31
2023-12-12T07:55:15.463Z,99237.81
2023-12-12T07:57:43.011Z,99239.75
2023-12-12T08:00:11.501Z,99231.31
2023-12-12T08:02:39.107Z,99230.78
2023-12-12T08:05:07.506Z,99231.91
2023-12-12T08:07:34.568Z,99233.81
2023-12-12T08:10:01.616Z,99230.31
2023-12-12T08:12:29.448Z,99225.44
2023-12-12T08:14:56.991Z,99228.16
2023-12-12T08:17:23.831Z,99228.44
2023-12-12T08:19:51.661Z,99223.00
2023-12-12T08:22:18.438Z,99225.78
2023-12-12T08:24:46.508Z,99227.22
2023-12-12T08:27:13.812Z,99232.16
2023-12-12T08:29:40.417Z,99232.16
2023-12-12T08:32:07.448Z,99232.41
2023-12-12T08:34:34.960Z,99238.66
2023-12-12T08:37:02.470Z,99226.38
2023-12-12T08:39:29.915Z,99231.06
2023-12-12T08:41:59.922Z,99228.63
2023-12-12T08:44:27.058Z,99233.78
2023-12-12T08:46:53.767Z,99231.91
2023-12-12T08:49:20.647Z,99231.38
2023-12-12T08:51:48.994Z,99231.91
2023-12-12T08:54:15.714Z,99236.81
2023-12-12T08:56:43.631Z,99240.06
2023-12-12T08:59:10.488Z,99242.78
2023-12-12T09:01:37.257Z,99248.50
2023-12-12T09:04:04.308Z,99254.47
2023-12-12T09:06:30.981Z,99246.03
2023-12-12T09:08:57.656Z,99257.44
2023-12-12T09:11:24.571Z,99254.19
2023-12-12T09:13:51.137Z,99256.38
2023-12-12T09:16:17.852Z,99249.28
2023-12-12T09:18:44.663Z,99257.75
2023-12-12T09:21:15.258Z,99260.16
2023-12-12T09:23:42.708Z,99257.91
2023-12-12T09:26:14.149Z,99253.56
2023-12-12T09:28:44.254Z,99245.72
2023-12-12T09:31:11.739Z,99251.09
2023-12-12T09:33:39.546Z,99253.81
2023-12-12T09:36:07.468Z,99248.38
2023-12-12T09:38:34.102Z,99252.16
2023-12-12T09:41:02.073Z,99258.19
2023-12-12T09:43:29.613Z,99261.44
2023-12-12T09:46:00.498Z,99252.47
2023-12-12T09:48:27.328Z,99251.63
2023-12-12T09:50:57.883Z,99253.81
2023-12-12T09:53:25.794Z,99259.25
2023-12-12T09:55:53.578Z,99247.84
2023-12-12T09:58:20.326Z,99244.31
2023-12-12T10:00:47.626Z,99250.13
2023-12-12T10:03:15.011Z,99237.66
2023-12-12T10:05:48.261Z,99235.50
2023-12-12T10:08:16.019Z,99237.69
2023-12-12T10:10:43.508Z,99239.06
2023-12-12T10:13:10.461Z,99238.81
2023-12-12T10:15:37.728Z,99236.59
2023-12-12T10:18:04.693Z,99228.97
2023-12-12T10:20:32.615Z,99231.69
2023-12-12T10:23:03.822Z,99230.63
2023-12-12T10:25:31.219Z,99227.59
2023-12-12T10:28:01.485Z,99225.13
2023-12-12T10:30:28.521Z,99228.59
2023-12-12T10:32:56.904Z,99221.84
2023-12-12T10:35:25.172Z,99220.22
2023-12-12T10:37:54.129Z,99220.22
2023-12-12T10:40:23.707Z,99210.69
2023-12-12T10:42:51.591Z,99207.16
2023-12-12T10:45:19.244Z,99206.84
2023-12-12T10:47:50.711Z,99193.16
2023-12-12T10:50:19.525Z,99188.81
2023-12-12T10:52:51.898Z,99181.50
2023-12-12T10:55:20.666Z,99177.75
2023-12-12T10:57:48.776Z,99168.75
2023-12-12T11:00:19.437Z,99173.72
2023-12-12T11:02:49.088Z,99163.63
2023-12-12T11:05:17.546Z,99166.34
2023-12-12T11:07:48.133Z,99157.66
2023-12-12T11:10:16.845Z,99160.09
2023-12-12T11:12:50.069Z,99152.47
2023-12-12T11:15:18.348Z,99148.97
2023-12-12T11:17:46.329Z,99152.75
2023-12-12T11:20:15.147Z,99142.69
2023-12-12T11:22:44.284Z,99143.78
2023-12-12T11:25:17.725Z,99139.16
2023-12-12T11:27:52.547Z,99136.72
2023-12-12T11:30:21.306Z,99130.72
2023-12-12T11:32:48.704Z,99130.97
2023-12-12T11:35:33.913Z,99134.25
2023-12-12T11:38:06.982Z,99132.06
2023-12-12T11:40:36.378Z,99133.69
2023-12-12T11:43:21.322Z,99129.34
2023-12-12T11:45:48.371Z,99121.72
2023-12-12T11:48:16.152Z,99130.38
2023-12-12T11:50:43.171Z,99118.66
2023-12-12T11:53:10.104Z,99131.72
2023-12-12T11:55:43.693Z,99129.25
2023-12-12T11:58:14.901Z,99131.13
2023-12-12T12:00:42.335Z,99123.41
2023-12-12T12:03:12.513Z,99123.06
2023-12-12T12:05:39.554Z,99119.47
2023-12-12T12:08:08.602Z,99125.19
2023-12-12T12:10:56.411Z,99122.16
2023-12-12T12:13:23.273Z,99117.00
2023-12-12T12:15:51.509Z,99110.50
2023-12-12T12:18:28.003Z,99120.03
2023-12-12T12:20:54.942Z,99113.28
2023-12-12T12:23:21.586Z,99112.00
2023-12-12T12:25:48.518Z,99113.91
2023-12-12T12:28:15.406Z,99108.19
2023-12-12T12:30:48.198Z,99106.03
2023-12-12T12:33:15.386Z,99115.06
2023-12-12T12:35:53.051Z,99108.56
2023-12-12T12:38:27.082Z,99117.00
2023-12-12T12:40:54.275Z,99119.72
2023-12-12T12:43:23.949Z,99109.09
2023-12-12T12:45:52.270Z,99108.56
2023-12-12T12:48:21.042Z,99106.09
2023-12-12T12:50:50.430Z,99102.28
2023-12-12T12:53:17.663Z,99099.28
2023-12-12T12:55:45.303Z,99093.28
2023-12-12T12:58:13.603Z,99089.69
2023-12-12T13:00:42.880Z,99089.41
2023-12-12T13:03:12.192Z,99090.47
2023-12-12T13:05:40.246Z,99082.28
2023-12-12T13:08:07.090Z,99085.25
2023-12-12T13:10:43.234Z,99089.34
2023-12-12T13:13:14.917Z,99083.34
2023-12-12T13:15:41.885Z,99078.41
2023-12-12T13:18:08.615Z,99083.09
2023-12-12T13:20:35.303Z,99078.16
2023-12-12T13:23:02.008Z,99075.66
2023-12-12T13:25:28.895Z,99069.13
2023-12-12T13:27:55.727Z,99069.16
2023-12-12T13:30:22.546Z,99068.84
2023-12-12T13:32:49.691Z,99057.97
2023-12-12T13:35:27.145Z,99057.66
2023-12-12T13:38:02.365Z,99055.75
2023-12-12T13:40:36.047Z,99050.31
2023-12-12T13:43:03.954Z,99048.09
2023-12-12T13:45:31.421Z,99047.56
2023-12-12T13:47:58.283Z,99048.66
2023-12-12T13:50:25.050Z,99045.44
2023-12-12T13:52:54.014Z,99042.50
2023-12-12T13:55:20.972Z,99044.72
2023-12-12T13:58:08.132Z,99039.28
2023-12-12T14:00:34.934Z,99045.06
2023-12-12T14:03:01.880Z,99038.56
2023-12-12T14:05:29.802Z,99045.94
2023-12-12T14:07:56.904Z,99042.13
2023-12-12T14:10:24.232Z,99047.06
2023-12-12T14:12:51.172Z,99050.34
2023-12-12T14:15:17.890Z,99055.25
2023-12-12T14:17:44.612Z,99060.69
2023-12-12T14:20:11.639Z,99054.47
2023-12-12T14:22:39.390Z,99065.34
2023-12-12T14:25:07.009Z,99069.16
2023-12-12T14:27:34.104Z,99056.34
2023-12-12T14:30:00.879Z,99048.47
2023-12-12T14:32:27.611Z,99049.84
2023-12-12T14:34:54.833Z,99046.56
2023-12-12T14:37:21.687Z,99041.97
2023-12-12T14:39:48.450Z,99041.97
2023-12-12T14:42:15.379Z,99043.59
2023-12-12T14:44:42.994Z,99027.84
2023-12-12T14:47:09.850Z,99036.81
2023-12-12T14:49:36.741Z,99029.75
2023-12-12T14:52:03.696Z,99030.84
2023-12-12T14:54:31.489Z,99014.00
2023-12-12T14:57:06.105Z,99008.84
2023-12-12T14:59:38.780Z,99018.34
2023-12-12T15:02:05.684Z,99009.63
2023-12-12T15:04:32.682Z,99012.91
2023-12-12T15:06:59.644Z,99012.63
2023-12-12T15:09:26.373Z,99009.38
2023-12-12T15:11:53.963Z,99005.00
2023-12-12T15:14:21.579Z,99005.56
2023-12-12T15:16:48.436Z,99002.31
2023-12-12T15:19:15.388Z,98997.69
2023-12-12T15:21:42.290Z,99000.41
2023-12-12T15:24:11.652Z,98997.13
2023-12-12T15:26:41.452Z,98988.44
2023-12-12T15:29:09.581Z,98989.25
2023-12-12T15:31:36.759Z,98999.56
2023-12-12T15:34:03.978Z,98990.34
2023-12-12T15:36:31.248Z,98986.53
2023-12-12T15:38:58.229Z,98983.81
2023-12-12T15:41:25.102Z,98976.75
2023-12-12T15:43:51.802Z,98980.25
2023-12-12T15:46:19.877Z,98985.44
2023-12-12T15:48:47.539Z,98985.44
2023-12-12T15:51:15.024Z,98987.34
2023-12-12T15:53:41.889Z,98985.16
2023-12-12T15:56:12.813Z,98980.53
2023-12-12T15:58:42.771Z,98972.09
2023-12-12T16:01:11.098Z,98967.47
2023-12-12T16:03:38.088Z,98965.59
2023-12-12T16:06:08.306Z,98959.63
2023-12-12T16:08:35.513Z,98957.72
2023-12-12T16:11:02.358Z,98952.28
2023-12-12T16:13:30.065Z,98942.47
2023-12-12T16:15:56.998Z,98935.97
2023-12-12T16:18:24.274Z,98927.53
2023-12-12T16:20:55.451Z,98931.06
2023-12-12T16:23:22.156Z,98929.44
2023-12-12T16:25:48.976Z,98929.44
2023-12-12T16:28:16.085Z,98928.06
2023-12-12T16:30:42.870Z,98923.75
2023-12-12T16:33:12.235Z,98922.94
2023-12-12T16:35:39.071Z,98918.56
2023-12-12T16:38:06.018Z,98913.94
2023-12-12T16:40:38.535Z,98913.66
2023-12-12T16:43:05.404Z,98913.66
2023-12-12T16:45:38.842Z,98900.38
2023-12-12T16:48:09.729Z,98902.25
2023-12-12T16:50:37.184Z,98888.16
2023-12-12T16:53:04.347Z,98892.75
2023-12-12T16:55:31.464Z,98882.16
2023-12-12T16:57:58.190Z,98879.19
2023-12-12T17:00:24.940Z,98875.63
2023-12-12T17:02:56.320Z,98869.38
2023-12-12T17:05:23.213Z,98874.25
2023-12-12T17:07:53.149Z,98865.28
2023-12-12T17:10:20.415Z,98861.16
2023-12-12T17:12:49.487Z,98855.75
2023-12-12T17:15:17.477Z,98857.91
2023-12-12T17:17:44.312Z,98863.88
2023-12-12T17:20:11.783Z,98860.34
2023-12-12T17:22:39.629Z,98854.09
2023-12-12T17:25:08.092Z,98846.25
2023-12-12T17:27:35.670Z,98840.00
2023-12-12T17:30:04.238Z,98854.66
2023-12-12T17:32:31.128Z,98847.34
2023-12-12T17:35:00.031Z,98848.16
2023-12-12T17:37:26.852Z,98840.59
2023-12-12T17:39:53.736Z,98849.00
2023-12-12T17:42:20.896Z,98838.41
2023-12-12T17:44:48.697Z,98836.25
2023-12-12T17:47:16.038Z,98831.38
2023-12-12T17:49:43.566Z,98833.53
2023-12-12T17:52:10.675Z,98825.94
2023-12-12T17:54:37.368Z,98825.38
2023-12-12T17:57:04.372Z,98809.91
2023-12-12T17:59:31.094Z,98822.41
2023-12-12T18:01:59.365Z,98818.59
2023-12-12T18:04:27.214Z,98809.09
2023-12-12T18:06:57.937Z,98817.25
2023-12-12T18:09:24.797Z,98799.34
2023-12-12T18:11:51.505Z,98796.88
2023-12-12T18:14:18.426Z,98793.63
2023-12-12T18:16:45.167Z,98794.44
2023-12-12T18:19:12.446Z,98795.78
2023-12-12T18:21:39.252Z,98792.28
2023-12-12T18:24:06.718Z,98786.03
2023-12-12T18:26:33.506Z,98784.41
2023-12-12T18:29:01.767Z,98777.59
2023-12-12T18:31:31.249Z,98784.69
2023-12-12T18:33:59.050Z,98775.97
2023-12-12T18:36:26.384Z,98774.63
2023-12-12T18:38:53.557Z,98769.72
2023-12-12T18:41:21.806Z,98767.84
2023-12-12T18:43:51.906Z,98756.19
2023-12-12T18:46:21.366Z,98753.44
2023-12-12T18:48:49.610Z,98758.59
2023-12-12T18:51:20.433Z,98760.75
2023-12-12T18:53:48.431Z,98759.13
2023-12-12T18:56:18.293Z,98762.66
2023-12-12T18:58:45.332Z,98767.84
2023-12-12T19:01:17.879Z,98773.25
2023-12-12T19:03:45.019Z,98775.44
2023-12-12T19:06:14.668Z,98765.13
2023-12-12T19:08:41.899Z,98771.06
2023-12-12T19:11:08.688Z,98767.81
2023-12-12T19:13:35.593Z,98768.91
2023-12-12T19:16:03.016Z,98769.19
2023-12-12T19:18:29.950Z,98772.97
2023-12-12T19:20:56.748Z,98768.41
2023-12-12T19:23:25.055Z,98761.59
2023-12-12T19:25:51.789Z,98761.88
2023-12-12T19:28:19.524Z,98757.78
2023-12-12T19:30:46.264Z,98752.63
2023-12-12T19:33:13.053Z,98758.06
2023-12-12T19:35:40.635Z,98752.09
2023-12-12T19:38:07.458Z,98748.28
2023-12-12T19:40:37.448Z,98745.56
2023-12-12T19:43:04.750Z,98746.38
2023-12-12T19:45:31.686Z,98745.31
2023-12-12T19:47:59.096Z,98750.19
2023-12-12T19:50:26.053Z,98752.09
2023-12-12T19:52:54.104Z,98745.84
2023-12-12T19:55:20.985Z,98731.47
2023-12-12T19:57:48.489Z,98730.38
2023-12-12T20:00:15.683Z,98724.66
2023-12-12T20:02:43.660Z,98712.16
2023-12-12T20:05:10.404Z,98711.91
2023-12-12T20:07:38.191Z,98717.88
2023-12-12T20:10:10.575Z,98702.16
2023-12-12T20:12:43.288Z,98698.06
2023-12-12T20:15:11.267Z,98687.72
2023-12-12T20:17:38.270Z,98685.53
2023-12-12T20:20:05.751Z,98688.25
2023-12-12T20:22:32.432Z,98682.56
2023-12-12T20:24:59.344Z,98681.50
2023-12-12T20:27:27.140Z,98672.53
2023-12-12T20:29:54.224Z,98673.06
2023-12-12T20:32:21.133Z,98671.72
2023-12-12T20:34:51.090Z,98673.06
2023-12-12T20:37:18.238Z,98677.94
2023-12-12T20:39:45.443Z,98680.66
2023-12-12T20:42:13.472Z,98676.56
2023-12-12T20:44:40.265Z,98667.56
2023-12-12T20:47:07.306Z,98664.88
2023-12-12T20:49:34.901Z,98664.34
2023-12-12T20:52:01.921Z,98657.53
2023-12-12T20:54:30.989Z,98652.66
2023-12-12T20:56:57.814Z,98647.22
2023-12-12T20:59:25.992Z,98639.38
2023-12-12T21:01:52.716Z,98636.69
2023-12-12T21:04:19.591Z,98645.09
2023-12-12T21:06:46.734Z,98648.34
2023-12-12T21:09:14.304Z,98642.41
2023-12-12T21:11:41.088Z,98647.00
2023-12-12T21:14:08.442Z,98638.34
2023-12-12T21:16:35.204Z,98640.75
2023-12-12T21:19:03.646Z,98644.28
2023-12-12T21:21:31.219Z,98646.19
2023-12-12T21:23:58.221Z,98638.59
2023-12-12T21:26:25.167Z,98635.59
2023-12-12T21:28:52.184Z,98641.84
2023-12-12T21:31:19.242Z,98630.44
2023-12-12T21:33:46.356Z,98632.09
2023-12-12T21:36:13.204Z,98628.28
2023-12-12T21:38:42.802Z,98619.34
2023-12-12T21:41:14.391Z,98624.22
2023-12-12T21:43:44.399Z,98616.63
2023-12-12T21:46:11.279Z,98610.41
2023-12-12T21:48:40.909Z,98606.34
2023-12-12T21:51:07.826Z,98613.69
2023-12-12T21:53:34.869Z,98604.72
2023-12-12T21:56:03.136Z,98602.28
2023-12-12T21:58:30.441Z,98594.69
2023-12-12T22:00:58.865Z,98589.81
2023-12-12T22:03:28.627Z,98600.13
2023-12-12T22:05:55.944Z,98595.78
2023-12-12T22:08:22.629Z,98586.03
2023-12-12T22:10:49.315Z,98589.88
2023-12-12T22:13:16.834Z,98586.06
2023-12-12T22:15:43.924Z,98590.16
2023-12-12T22:18:11.068Z,98583.91
2023-12-12T22:20:38.002Z,98570.88
2023-12-12T22:23:07.747Z,98557.31
2023-12-12T22:25:34.941Z,98550.78
2023-12-12T22:28:01.772Z,98541.84
2023-12-12T22:30:32.124Z,98535.56
2023-12-12T22:32:58.998Z,98520.94
2023-12-12T22:35:25.699Z,98517.13
2023-12-12T22:37:52.558Z,98522.81
2023-12-12T22:40:19.295Z,98514.19
2023-12-12T22:42:45.947Z,98511.22
2023-12-12T22:45:12.756Z,98506.63
2023-12-12T22:47:39.697Z,98514.47
2023-12-12T22:50:07.578Z,98512.56
2023-12-12T22:52:34.394Z,98511.78
2023-12-12T22:55:01.068Z,98509.34
2023-12-12T22:57:27.673Z,98510.69
2023-12-12T22:59:54.328Z,98505.81
2023-12-12T23:02:21.002Z,98497.13
2023-12-12T23:04:47.727Z,98490.59
2023-12-12T23:07:14.880Z,98489.25
2023-12-12T23:09:41.579Z,98490.06
2023-12-12T23:12:08.556Z,98482.75
2023-12-12T23:14:37.811Z,98487.34
2023-12-12T23:17:05.983Z,98491.69
2023-12-12T23:19:32.710Z,98478.13
2023-12-12T23:21:59.695Z,98475.41
2023-12-12T23:24:27.262Z,98465.94
2023-12-12T23:26:54.100Z,98467.03
2023-12-12T23:29:20.736Z,98456.47
2023-12-12T23:31:48.520Z,98454.31
2023-12-12T23:34:15.435Z,98451.84
2023-12-12T23:36:42.884Z,98442.09
2023-12-12T23:39:10.124Z,98439.66
2023-12-12T23:41:42.406Z,98432.59
2023-12-12T23:44:09.249Z,98436.41
2023-12-12T23:46:44.803Z,98431.78
2023-12-12T23:49:15.720Z,98426.38
2023-12-12T23:51:43.096Z,98427.72
2023-12-12T23:54:09.932Z,98425.56
2023-12-12T23:56:38.287Z,98423.41
2023-12-12T23:59:04.947Z,98425.06
